sensor_id;sensor_type;location;lat;lon;timestamp;P1;durP1;ratioP1;P2;durP2;ratioP2
62056;SDS011;48016;50.284;18.860;2022-11-20T00:01:22;92.30;;;41.90;;
62056;SDS011;48016;50.284;18.860;2022-11-20T00:03:51;95.20;;;44.40;;
62056;SDS011;48016;50.284;18.860;2022-11-20T00:06:19;91.60;;;42.90;;
62056;SDS011;48016;50.284;18.860;2022-11-20T00:08:47;96.70;;;44.20;;
62056;SDS011;48016;50.284;18.860;2022-11-20T00:13:45;116.60;;;50.70;;
62056;SDS011;48016;50.284;18.860;2022-11-20T00:16:13;105.40;;;48.10;;
62056;SDS011;48016;50.284;18.860;2022-11-20T00:18:42;116.70;;;49.00;;
62056;SDS011;48016;50.284;18.860;2022-11-20T00:21:18;103.70;;;44.00;;
62056;SDS011;48016;50.284;18.860;2022-11-20T00:23:47;100.50;;;45.20;;
62056;SDS011;48016;50.284;18.860;2022-11-20T00:26:15;102.20;;;46.60;;
62056;SDS011;48016;50.284;18.860;2022-11-20T00:28:44;105.60;;;47.10;;
62056;SDS011;48016;50.284;18.860;2022-11-20T00:31:16;102.00;;;47.30;;
62056;SDS011;48016;50.284;18.860;2022-11-20T00:33:43;101.00;;;46.10;;
62056;SDS011;48016;50.284;18.860;2022-11-20T00:36:11;102.40;;;44.80;;
62056;SDS011;48016;50.284;18.860;2022-11-20T00:38:44;107.60;;;47.00;;
62056;SDS011;48016;50.284;18.860;2022-11-20T00:41:12;99.90;;;45.10;;
62056;SDS011;48016;50.284;18.860;2022-11-20T00:43:40;101.10;;;47.90;;
62056;SDS011;48016;50.284;18.860;2022-11-20T00:46:08;103.20;;;45.00;;
62056;SDS011;48016;50.284;18.860;2022-11-20T00:48:38;119.10;;;50.20;;
62056;SDS011;48016;50.284;18.860;2022-11-20T00:51:04;112.50;;;51.10;;
62056;SDS011;48016;50.284;18.860;2022-11-20T00:53:32;114.40;;;50.30;;
62056;SDS011;48016;50.284;18.860;2022-11-20T00:56:03;105.50;;;48.80;;
62056;SDS011;48016;50.284;18.860;2022-11-20T00:58:32;101.30;;;45.60;;
62056;SDS011;48016;50.284;18.860;2022-11-20T01:01:01;98.50;;;46.40;;
62056;SDS011;48016;50.284;18.860;2022-11-20T01:03:32;110.80;;;47.50;;
62056;SDS011;48016;50.284;18.860;2022-11-20T01:06:04;106.40;;;49.00;;
62056;SDS011;48016;50.284;18.860;2022-11-20T01:08:37;109.90;;;48.30;;
62056;SDS011;48016;50.284;18.860;2022-11-20T01:11:05;118.00;;;52.40;;
62056;SDS011;48016;50.284;18.860;2022-11-20T01:13:33;105.80;;;43.10;;
62056;SDS011;48016;50.284;18.860;2022-11-20T01:16:13;122.60;;;54.70;;
62056;SDS011;48016;50.284;18.860;2022-11-20T01:18:42;124.10;;;54.70;;
62056;SDS011;48016;50.284;18.860;2022-11-20T01:21:11;118.90;;;52.30;;
62056;SDS011;48016;50.284;18.860;2022-11-20T01:23:40;116.50;;;51.00;;
62056;SDS011;48016;50.284;18.860;2022-11-20T01:26:12;129.00;;;53.60;;
62056;SDS011;48016;50.284;18.860;2022-11-20T01:28:40;129.50;;;56.70;;
62056;SDS011;48016;50.284;18.860;2022-11-20T01:31:27;126.00;;;51.80;;
62056;SDS011;48016;50.284;18.860;2022-11-20T01:33:56;126.70;;;57.40;;
62056;SDS011;48016;50.284;18.860;2022-11-20T01:36:26;126.90;;;54.80;;
62056;SDS011;48016;50.284;18.860;2022-11-20T01:38:55;103.80;;;46.50;;
62056;SDS011;48016;50.284;18.860;2022-11-20T01:41:24;89.80;;;40.60;;
62056;SDS011;48016;50.284;18.860;2022-11-20T01:44:12;88.40;;;39.90;;
62056;SDS011;48016;50.284;18.860;2022-11-20T01:47:02;100.70;;;44.20;;
62056;SDS011;48016;50.284;18.860;2022-11-20T01:51:57;84.70;;;41.10;;
62056;SDS011;48016;50.284;18.860;2022-11-20T01:54:32;87.50;;;40.80;;
62056;SDS011;48016;50.284;18.860;2022-11-20T01:57:04;99.90;;;46.20;;
62056;SDS011;48016;50.284;18.860;2022-11-20T01:59:34;96.90;;;43.50;;
62056;SDS011;48016;50.284;18.860;2022-11-20T02:02:02;107.30;;;48.40;;
62056;SDS011;48016;50.284;18.860;2022-11-20T02:04:29;110.80;;;45.90;;
62056;SDS011;48016;50.284;18.860;2022-11-20T02:07:04;119.10;;;56.50;;
62056;SDS011;48016;50.284;18.860;2022-11-20T02:09:31;121.70;;;55.80;;
62056;SDS011;48016;50.284;18.860;2022-11-20T02:11:58;115.80;;;56.60;;
62056;SDS011;48016;50.284;18.860;2022-11-20T02:14:25;121.80;;;54.30;;
62056;SDS011;48016;50.284;18.860;2022-11-20T02:16:52;107.20;;;49.80;;
62056;SDS011;48016;50.284;18.860;2022-11-20T02:24:27;106.00;;;50.00;;
62056;SDS011;48016;50.284;18.860;2022-11-20T02:26:59;106.90;;;48.10;;
62056;SDS011;48016;50.284;18.860;2022-11-20T02:29:41;116.40;;;51.90;;
62056;SDS011;48016;50.284;18.860;2022-11-20T02:32:24;97.40;;;46.60;;
62056;SDS011;48016;50.284;18.860;2022-11-20T02:34:56;95.20;;;43.70;;
62056;SDS011;48016;50.284;18.860;2022-11-20T02:37:23;96.90;;;43.80;;
62056;SDS011;48016;50.284;18.860;2022-11-20T02:39:56;104.20;;;45.90;;
62056;SDS011;48016;50.284;18.860;2022-11-20T02:42:22;97.60;;;45.60;;
62056;SDS011;48016;50.284;18.860;2022-11-20T02:44:49;110.20;;;47.30;;
62056;SDS011;48016;50.284;18.860;2022-11-20T02:47:15;89.40;;;39.60;;
62056;SDS011;48016;50.284;18.860;2022-11-20T02:49:42;137.50;;;58.80;;
62056;SDS011;48016;50.284;18.860;2022-11-20T02:52:08;136.70;;;62.70;;
62056;SDS011;48016;50.284;18.860;2022-11-20T02:54:35;129.60;;;56.30;;
62056;SDS011;48016;50.284;18.860;2022-11-20T02:57:01;117.80;;;52.80;;
62056;SDS011;48016;50.284;18.860;2022-11-20T02:59:28;112.60;;;49.10;;
62056;SDS011;48016;50.284;18.860;2022-11-20T03:01:54;111.80;;;49.20;;
62056;SDS011;48016;50.284;18.860;2022-11-20T03:04:21;119.40;;;52.50;;
62056;SDS011;48016;50.284;18.860;2022-11-20T03:06:47;117.40;;;53.60;;
62056;SDS011;48016;50.284;18.860;2022-11-20T03:09:14;127.70;;;57.50;;
62056;SDS011;48016;50.284;18.860;2022-11-20T03:11:40;122.50;;;51.50;;
62056;SDS011;48016;50.284;18.860;2022-11-20T03:14:07;123.50;;;54.70;;
62056;SDS011;48016;50.284;18.860;2022-11-20T03:16:33;126.00;;;58.20;;
62056;SDS011;48016;50.284;18.860;2022-11-20T03:19:00;126.00;;;56.90;;
62056;SDS011;48016;50.284;18.860;2022-11-20T03:21:27;135.20;;;59.00;;
62056;SDS011;48016;50.284;18.860;2022-11-20T03:23:53;140.00;;;64.20;;
62056;SDS011;48016;50.284;18.860;2022-11-20T03:26:21;138.30;;;63.80;;
62056;SDS011;48016;50.284;18.860;2022-11-20T03:28:51;141.20;;;62.70;;
62056;SDS011;48016;50.284;18.860;2022-11-20T03:31:20;132.20;;;56.30;;
62056;SDS011;48016;50.284;18.860;2022-11-20T03:33:49;118.30;;;53.50;;
62056;SDS011;48016;50.284;18.860;2022-11-20T03:36:17;116.10;;;51.20;;
62056;SDS011;48016;50.284;18.860;2022-11-20T03:38:44;121.00;;;55.40;;
62056;SDS011;48016;50.284;18.860;2022-11-20T03:41:13;123.00;;;56.20;;
62056;SDS011;48016;50.284;18.860;2022-11-20T03:43:41;122.30;;;54.40;;
62056;SDS011;48016;50.284;18.860;2022-11-20T03:46:08;124.10;;;56.30;;
62056;SDS011;48016;50.284;18.860;2022-11-20T03:48:34;118.10;;;55.40;;
62056;SDS011;48016;50.284;18.860;2022-11-20T03:51:11;115.40;;;53.40;;
62056;SDS011;48016;50.284;18.860;2022-11-20T03:53:40;119.50;;;53.40;;
62056;SDS011;48016;50.284;18.860;2022-11-20T03:56:09;127.30;;;58.70;;
62056;SDS011;48016;50.284;18.860;2022-11-20T04:01:20;140.40;;;61.40;;
62056;SDS011;48016;50.284;18.860;2022-11-20T04:03:48;128.50;;;58.60;;
62056;SDS011;48016;50.284;18.860;2022-11-20T04:06:20;119.00;;;54.10;;
62056;SDS011;48016;50.284;18.860;2022-11-20T04:08:49;111.20;;;51.00;;
62056;SDS011;48016;50.284;18.860;2022-11-20T04:11:16;115.10;;;49.90;;
62056;SDS011;48016;50.284;18.860;2022-11-20T04:13:48;101.70;;;46.90;;
62056;SDS011;48016;50.284;18.860;2022-11-20T04:16:19;104.90;;;46.50;;
62056;SDS011;48016;50.284;18.860;2022-11-20T04:18:50;115.00;;;54.40;;
62056;SDS011;48016;50.284;18.860;2022-11-20T04:21:18;101.50;;;49.40;;
62056;SDS011;48016;50.284;18.860;2022-11-20T04:23:45;95.50;;;44.40;;
62056;SDS011;48016;50.284;18.860;2022-11-20T04:26:11;103.80;;;49.30;;
62056;SDS011;48016;50.284;18.860;2022-11-20T04:28:38;104.10;;;48.70;;
62056;SDS011;48016;50.284;18.860;2022-11-20T04:31:06;100.00;;;44.90;;
62056;SDS011;48016;50.284;18.860;2022-11-20T04:33:33;128.40;;;57.10;;
62056;SDS011;48016;50.284;18.860;2022-11-20T04:36:05;124.80;;;55.40;;
62056;SDS011;48016;50.284;18.860;2022-11-20T04:38:33;113.50;;;52.20;;
62056;SDS011;48016;50.284;18.860;2022-11-20T04:41:00;106.80;;;49.80;;
62056;SDS011;48016;50.284;18.860;2022-11-20T04:43:28;114.70;;;51.10;;
62056;SDS011;48016;50.284;18.860;2022-11-20T04:45:55;111.20;;;51.40;;
62056;SDS011;48016;50.284;18.860;2022-11-20T04:48:23;107.40;;;50.60;;
62056;SDS011;48016;50.284;18.860;2022-11-20T04:50:51;111.50;;;53.10;;
62056;SDS011;48016;50.284;18.860;2022-11-20T04:53:18;114.40;;;54.60;;
62056;SDS011;48016;50.284;18.860;2022-11-20T04:55:46;113.80;;;50.00;;
62056;SDS011;48016;50.284;18.860;2022-11-20T04:58:12;120.10;;;53.70;;
62056;SDS011;48016;50.284;18.860;2022-11-20T05:00:39;113.30;;;52.30;;
62056;SDS011;48016;50.284;18.860;2022-11-20T05:03:06;121.50;;;54.50;;
62056;SDS011;48016;50.284;18.860;2022-11-20T05:05:33;107.20;;;48.30;;
62056;SDS011;48016;50.284;18.860;2022-11-20T05:08:00;130.70;;;60.80;;
62056;SDS011;48016;50.284;18.860;2022-11-20T05:10:27;116.00;;;51.70;;
62056;SDS011;48016;50.284;18.860;2022-11-20T05:12:54;105.60;;;47.30;;
62056;SDS011;48016;50.284;18.860;2022-11-20T05:15:20;117.40;;;51.90;;
62056;SDS011;48016;50.284;18.860;2022-11-20T05:17:50;122.20;;;55.20;;
62056;SDS011;48016;50.284;18.860;2022-11-20T05:20:18;112.60;;;53.40;;
62056;SDS011;48016;50.284;18.860;2022-11-20T05:25:12;115.40;;;53.40;;
62056;SDS011;48016;50.284;18.860;2022-11-20T05:27:38;108.40;;;54.00;;
62056;SDS011;48016;50.284;18.860;2022-11-20T05:30:05;113.90;;;53.50;;
62056;SDS011;48016;50.284;18.860;2022-11-20T05:32:32;113.00;;;50.80;;
62056;SDS011;48016;50.284;18.860;2022-11-20T05:34:59;117.10;;;52.70;;
62056;SDS011;48016;50.284;18.860;2022-11-20T05:37:25;107.30;;;47.60;;
62056;SDS011;48016;50.284;18.860;2022-11-20T05:39:52;87.20;;;40.50;;
62056;SDS011;48016;50.284;18.860;2022-11-20T05:42:19;127.30;;;57.40;;
62056;SDS011;48016;50.284;18.860;2022-11-20T05:44:58;109.30;;;52.60;;
62056;SDS011;48016;50.284;18.860;2022-11-20T05:47:26;115.00;;;53.70;;
62056;SDS011;48016;50.284;18.860;2022-11-20T05:49:54;117.90;;;51.90;;
62056;SDS011;48016;50.284;18.860;2022-11-20T05:52:21;107.20;;;50.00;;
62056;SDS011;48016;50.284;18.860;2022-11-20T05:54:47;103.70;;;49.20;;
62056;SDS011;48016;50.284;18.860;2022-11-20T05:57:14;109.20;;;49.20;;
62056;SDS011;48016;50.284;18.860;2022-11-20T05:59:41;105.40;;;50.30;;
62056;SDS011;48016;50.284;18.860;2022-11-20T06:02:08;106.40;;;49.00;;
62056;SDS011;48016;50.284;18.860;2022-11-20T06:04:36;105.70;;;48.00;;
62056;SDS011;48016;50.284;18.860;2022-11-20T06:07:04;101.20;;;47.50;;
62056;SDS011;48016;50.284;18.860;2022-11-20T06:09:32;99.50;;;47.00;;
62056;SDS011;48016;50.284;18.860;2022-11-20T06:11:59;100.90;;;48.20;;
62056;SDS011;48016;50.284;18.860;2022-11-20T06:14:25;98.00;;;48.50;;
62056;SDS011;48016;50.284;18.860;2022-11-20T06:16:52;104.00;;;48.00;;
62056;SDS011;48016;50.284;18.860;2022-11-20T06:19:18;92.60;;;44.50;;
62056;SDS011;48016;50.284;18.860;2022-11-20T06:21:46;110.30;;;48.20;;
62056;SDS011;48016;50.284;18.860;2022-11-20T06:24:14;110.00;;;47.40;;
62056;SDS011;48016;50.284;18.860;2022-11-20T06:26:40;119.70;;;52.60;;
62056;SDS011;48016;50.284;18.860;2022-11-20T06:29:07;106.90;;;46.10;;
62056;SDS011;48016;50.284;18.860;2022-11-20T06:31:34;89.60;;;43.70;;
62056;SDS011;48016;50.284;18.860;2022-11-20T06:34:04;92.00;;;46.40;;
62056;SDS011;48016;50.284;18.860;2022-11-20T06:36:32;91.60;;;44.50;;
62056;SDS011;48016;50.284;18.860;2022-11-20T06:38:59;87.50;;;44.20;;
62056;SDS011;48016;50.284;18.860;2022-11-20T06:41:26;89.90;;;42.70;;
62056;SDS011;48016;50.284;18.860;2022-11-20T06:43:54;90.30;;;44.20;;
62056;SDS011;48016;50.284;18.860;2022-11-20T06:46:20;91.40;;;44.90;;
62056;SDS011;48016;50.284;18.860;2022-11-20T06:48:47;101.70;;;45.90;;
62056;SDS011;48016;50.284;18.860;2022-11-20T06:51:15;91.50;;;43.40;;
62056;SDS011;48016;50.284;18.860;2022-11-20T06:53:43;92.30;;;43.50;;
62056;SDS011;48016;50.284;18.860;2022-11-20T06:56:09;97.00;;;46.50;;
62056;SDS011;48016;50.284;18.860;2022-11-20T06:58:36;96.60;;;42.50;;
62056;SDS011;48016;50.284;18.860;2022-11-20T07:01:04;110.80;;;50.00;;
62056;SDS011;48016;50.284;18.860;2022-11-20T07:03:36;101.30;;;47.70;;
62056;SDS011;48016;50.284;18.860;2022-11-20T07:08:30;101.80;;;48.20;;
62056;SDS011;48016;50.284;18.860;2022-11-20T07:10:58;96.10;;;46.80;;
62056;SDS011;48016;50.284;18.860;2022-11-20T07:13:26;102.00;;;45.70;;
62056;SDS011;48016;50.284;18.860;2022-11-20T07:15:53;98.30;;;46.00;;
62056;SDS011;48016;50.284;18.860;2022-11-20T07:18:20;90.90;;;45.20;;
62056;SDS011;48016;50.284;18.860;2022-11-20T07:20:47;97.20;;;45.20;;
62056;SDS011;48016;50.284;18.860;2022-11-20T07:23:13;107.50;;;49.80;;
62056;SDS011;48016;50.284;18.860;2022-11-20T07:25:40;101.00;;;48.30;;
62056;SDS011;48016;50.284;18.860;2022-11-20T07:28:06;108.60;;;53.20;;
62056;SDS011;48016;50.284;18.860;2022-11-20T07:30:33;105.30;;;50.60;;
62056;SDS011;48016;50.284;18.860;2022-11-20T07:32:59;111.80;;;52.20;;
62056;SDS011;48016;50.284;18.860;2022-11-20T07:35:26;115.20;;;53.90;;
62056;SDS011;48016;50.284;18.860;2022-11-20T07:37:52;121.60;;;54.50;;
62056;SDS011;48016;50.284;18.860;2022-11-20T07:40:19;128.00;;;57.90;;
62056;SDS011;48016;50.284;18.860;2022-11-20T07:42:52;119.10;;;57.80;;
62056;SDS011;48016;50.284;18.860;2022-11-20T07:45:22;123.10;;;53.50;;
62056;SDS011;48016;50.284;18.860;2022-11-20T07:47:50;106.10;;;52.00;;
62056;SDS011;48016;50.284;18.860;2022-11-20T07:50:17;113.90;;;54.80;;
62056;SDS011;48016;50.284;18.860;2022-11-20T07:52:45;109.20;;;53.20;;
62056;SDS011;48016;50.284;18.860;2022-11-20T07:55:11;108.90;;;54.60;;
62056;SDS011;48016;50.284;18.860;2022-11-20T07:57:38;107.90;;;54.90;;
62056;SDS011;48016;50.284;18.860;2022-11-20T08:00:05;133.20;;;62.00;;
62056;SDS011;48016;50.284;18.860;2022-11-20T08:02:37;136.30;;;66.90;;
62056;SDS011;48016;50.284;18.860;2022-11-20T08:05:05;140.00;;;67.50;;
62056;SDS011;48016;50.284;18.860;2022-11-20T08:07:40;135.50;;;62.40;;
62056;SDS011;48016;50.284;18.860;2022-11-20T08:10:09;131.80;;;62.10;;
62056;SDS011;48016;50.284;18.860;2022-11-20T08:12:44;144.20;;;66.30;;
62056;SDS011;48016;50.284;18.860;2022-11-20T08:15:33;138.80;;;66.00;;
62056;SDS011;48016;50.284;18.860;2022-11-20T08:18:01;126.80;;;59.70;;
62056;SDS011;48016;50.284;18.860;2022-11-20T08:20:27;130.50;;;65.60;;
62056;SDS011;48016;50.284;18.860;2022-11-20T08:22:58;129.30;;;65.60;;
62056;SDS011;48016;50.284;18.860;2022-11-20T08:25:26;122.30;;;61.10;;
62056;SDS011;48016;50.284;18.860;2022-11-20T08:27:54;126.90;;;60.60;;
62056;SDS011;48016;50.284;18.860;2022-11-20T08:30:20;134.80;;;69.30;;
62056;SDS011;48016;50.284;18.860;2022-11-20T08:32:47;129.60;;;64.10;;
62056;SDS011;48016;50.284;18.860;2022-11-20T08:35:13;123.10;;;56.10;;
62056;SDS011;48016;50.284;18.860;2022-11-20T08:37:40;132.00;;;59.50;;
62056;SDS011;48016;50.284;18.860;2022-11-20T08:40:10;150.40;;;74.40;;
62056;SDS011;48016;50.284;18.860;2022-11-20T08:42:45;150.60;;;70.80;;
62056;SDS011;48016;50.284;18.860;2022-11-20T08:45:12;163.30;;;76.70;;
62056;SDS011;48016;50.284;18.860;2022-11-20T08:47:39;156.20;;;71.00;;
62056;SDS011;48016;50.284;18.860;2022-11-20T08:50:05;140.30;;;68.60;;
62056;SDS011;48016;50.284;18.860;2022-11-20T08:52:32;130.50;;;65.40;;
62056;SDS011;48016;50.284;18.860;2022-11-20T08:54:59;130.40;;;61.80;;
62056;SDS011;48016;50.284;18.860;2022-11-20T08:57:25;122.90;;;59.30;;
62056;SDS011;48016;50.284;18.860;2022-11-20T08:59:52;121.90;;;57.20;;
62056;SDS011;48016;50.284;18.860;2022-11-20T09:02:18;118.70;;;55.60;;
62056;SDS011;48016;50.284;18.860;2022-11-20T09:04:45;119.20;;;56.90;;
62056;SDS011;48016;50.284;18.860;2022-11-20T09:07:12;119.60;;;56.00;;
62056;SDS011;48016;50.284;18.860;2022-11-20T09:09:38;110.30;;;52.70;;
62056;SDS011;48016;50.284;18.860;2022-11-20T09:12:05;102.10;;;46.50;;
62056;SDS011;48016;50.284;18.860;2022-11-20T09:14:31;110.30;;;51.60;;
62056;SDS011;48016;50.284;18.860;2022-11-20T09:16:58;110.30;;;50.00;;
62056;SDS011;48016;50.284;18.860;2022-11-20T09:19:24;102.10;;;48.10;;
62056;SDS011;48016;50.284;18.860;2022-11-20T09:21:51;104.20;;;47.60;;
62056;SDS011;48016;50.284;18.860;2022-11-20T09:24:18;94.00;;;46.50;;
62056;SDS011;48016;50.284;18.860;2022-11-20T09:26:45;99.70;;;48.40;;
62056;SDS011;48016;50.284;18.860;2022-11-20T09:29:11;109.00;;;52.40;;
62056;SDS011;48016;50.284;18.860;2022-11-20T09:31:38;93.50;;;45.80;;
62056;SDS011;48016;50.284;18.860;2022-11-20T09:34:04;114.40;;;52.80;;
62056;SDS011;48016;50.284;18.860;2022-11-20T09:36:31;122.30;;;56.90;;
62056;SDS011;48016;50.284;18.860;2022-11-20T09:38:57;118.60;;;60.10;;
62056;SDS011;48016;50.284;18.860;2022-11-20T09:41:31;110.00;;;56.90;;
62056;SDS011;48016;50.284;18.860;2022-11-20T09:47:01;110.10;;;53.90;;
62056;SDS011;48016;50.284;18.860;2022-11-20T09:55:24;84.10;;;41.70;;
62056;SDS011;48016;50.284;18.860;2022-11-20T10:00:18;88.60;;;43.70;;
62056;SDS011;48016;50.284;18.860;2022-11-20T10:03:36;95.90;;;45.80;;
62056;SDS011;48016;50.284;18.860;2022-11-20T10:05:49;90.80;;;42.90;;
62056;SDS011;48016;50.284;18.860;2022-11-20T10:10:51;81.20;;;40.60;;
62056;SDS011;48016;50.284;18.860;2022-11-20T10:13:40;94.20;;;43.50;;
62056;SDS011;48016;50.284;18.860;2022-11-20T10:27:34;84.30;;;43.00;;
62056;SDS011;48016;50.284;18.860;2022-11-20T10:30:14;85.30;;;42.20;;
62056;SDS011;48016;50.284;18.860;2022-11-20T10:32:43;72.60;;;36.70;;
62056;SDS011;48016;50.284;18.860;2022-11-20T10:35:19;87.30;;;42.30;;
62056;SDS011;48016;50.284;18.860;2022-11-20T10:38:09;77.10;;;39.60;;
62056;SDS011;48016;50.284;18.860;2022-11-20T10:40:48;83.00;;;39.20;;
62056;SDS011;48016;50.284;18.860;2022-11-20T10:43:21;73.80;;;37.20;;
62056;SDS011;48016;50.284;18.860;2022-11-20T10:45:57;76.70;;;37.40;;
62056;SDS011;48016;50.284;18.860;2022-11-20T10:48:31;69.00;;;35.40;;
62056;SDS011;48016;50.284;18.860;2022-11-20T10:51:04;84.90;;;39.90;;
62056;SDS011;48016;50.284;18.860;2022-11-20T10:56:27;65.70;;;34.90;;
62056;SDS011;48016;50.284;18.860;2022-11-20T11:01:50;67.20;;;35.40;;
62056;SDS011;48016;50.284;18.860;2022-11-20T11:04:28;72.00;;;37.90;;
62056;SDS011;48016;50.284;18.860;2022-11-20T11:09:54;72.20;;;38.10;;
62056;SDS011;48016;50.284;18.860;2022-11-20T11:12:23;78.60;;;36.80;;
62056;SDS011;48016;50.284;18.860;2022-11-20T11:14:52;68.40;;;34.40;;
62056;SDS011;48016;50.284;18.860;2022-11-20T11:20:15;73.20;;;35.50;;
62056;SDS011;48016;50.284;18.860;2022-11-20T11:22:53;69.30;;;34.30;;
62056;SDS011;48016;50.284;18.860;2022-11-20T11:25:29;69.50;;;33.00;;
62056;SDS011;48016;50.284;18.860;2022-11-20T11:28:24;72.70;;;34.70;;
62056;SDS011;48016;50.284;18.860;2022-11-20T11:30:52;86.90;;;41.60;;
62056;SDS011;48016;50.284;18.860;2022-11-20T11:33:20;78.90;;;40.40;;
62056;SDS011;48016;50.284;18.860;2022-11-20T11:35:52;86.80;;;40.80;;
62056;SDS011;48016;50.284;18.860;2022-11-20T11:41:00;77.70;;;40.90;;
62056;SDS011;48016;50.284;18.860;2022-11-20T11:43:31;77.90;;;39.00;;
62056;SDS011;48016;50.284;18.860;2022-11-20T11:46:26;81.90;;;38.30;;
62056;SDS011;48016;50.284;18.860;2022-11-20T11:48:57;77.70;;;35.70;;
62056;SDS011;48016;50.284;18.860;2022-11-20T11:54:20;84.80;;;40.60;;
62056;SDS011;48016;50.284;18.860;2022-11-20T11:57:00;74.50;;;36.80;;
62056;SDS011;48016;50.284;18.860;2022-11-20T11:59:44;77.90;;;38.90;;
62056;SDS011;48016;50.284;18.860;2022-11-20T12:02:32;75.50;;;36.70;;
62056;SDS011;48016;50.284;18.860;2022-11-20T12:05:16;70.00;;;34.70;;
62056;SDS011;48016;50.284;18.860;2022-11-20T12:07:51;76.90;;;36.20;;
62056;SDS011;48016;50.284;18.860;2022-11-20T12:10:23;67.70;;;33.50;;
62056;SDS011;48016;50.284;18.860;2022-11-20T12:13:06;72.00;;;36.00;;
62056;SDS011;48016;50.284;18.860;2022-11-20T12:15:37;75.40;;;37.30;;
62056;SDS011;48016;50.284;18.860;2022-11-20T12:18:10;80.50;;;37.50;;
62056;SDS011;48016;50.284;18.860;2022-11-20T12:20:44;84.90;;;43.70;;
62056;SDS011;48016;50.284;18.860;2022-11-20T12:23:22;88.00;;;42.60;;
62056;SDS011;48016;50.284;18.860;2022-11-20T12:25:52;81.70;;;41.10;;
62056;SDS011;48016;50.284;18.860;2022-11-20T12:28:28;84.60;;;42.50;;
62056;SDS011;48016;50.284;18.860;2022-11-20T12:36:27;95.90;;;48.80;;
62056;SDS011;48016;50.284;18.860;2022-11-20T12:39:05;89.50;;;39.80;;
62056;SDS011;48016;50.284;18.860;2022-11-20T12:47:31;92.00;;;45.40;;
62056;SDS011;48016;50.284;18.860;2022-11-20T12:53:04;94.00;;;45.70;;
62056;SDS011;48016;50.284;18.860;2022-11-20T12:55:47;83.40;;;40.90;;
62056;SDS011;48016;50.284;18.860;2022-11-20T12:58:44;93.10;;;46.00;;
62056;SDS011;48016;50.284;18.860;2022-11-20T13:07:13;90.00;;;46.20;;
62056;SDS011;48016;50.284;18.860;2022-11-20T13:09:46;96.10;;;44.50;;
62056;SDS011;48016;50.284;18.860;2022-11-20T13:12:25;85.30;;;41.90;;
62056;SDS011;48016;50.284;18.860;2022-11-20T13:17:59;92.20;;;47.20;;
62056;SDS011;48016;50.284;18.860;2022-11-20T13:20:26;88.10;;;46.30;;
62056;SDS011;48016;50.284;18.860;2022-11-20T13:22:54;90.10;;;46.00;;
62056;SDS011;48016;50.284;18.860;2022-11-20T13:25:30;92.80;;;44.20;;
62056;SDS011;48016;50.284;18.860;2022-11-20T13:27:59;104.00;;;48.80;;
62056;SDS011;48016;50.284;18.860;2022-11-20T13:30:28;98.10;;;47.90;;
62056;SDS011;48016;50.284;18.860;2022-11-20T13:35:32;95.90;;;47.80;;
62056;SDS011;48016;50.284;18.860;2022-11-20T13:40:30;100.50;;;50.80;;
62056;SDS011;48016;50.284;18.860;2022-11-20T13:43:07;109.40;;;51.60;;
62056;SDS011;48016;50.284;18.860;2022-11-20T13:45:59;105.00;;;50.60;;
62056;SDS011;48016;50.284;18.860;2022-11-20T13:48:32;98.00;;;48.20;;
62056;SDS011;48016;50.284;18.860;2022-11-20T13:51:06;105.30;;;52.10;;
62056;SDS011;48016;50.284;18.860;2022-11-20T13:53:57;111.90;;;52.80;;
62056;SDS011;48016;50.284;18.860;2022-11-20T14:01:58;108.80;;;52.80;;
62056;SDS011;48016;50.284;18.860;2022-11-20T14:04:28;113.40;;;55.50;;
62056;SDS011;48016;50.284;18.860;2022-11-20T14:06:59;119.60;;;56.30;;
62056;SDS011;48016;50.284;18.860;2022-11-20T14:09:26;110.30;;;54.40;;
62056;SDS011;48016;50.284;18.860;2022-11-20T14:11:55;109.60;;;53.80;;
62056;SDS011;48016;50.284;18.860;2022-11-20T14:14:26;113.80;;;57.50;;
62056;SDS011;48016;50.284;18.860;2022-11-20T14:17:06;118.90;;;58.80;;
62056;SDS011;48016;50.284;18.860;2022-11-20T14:19:44;121.70;;;56.90;;
62056;SDS011;48016;50.284;18.860;2022-11-20T14:22:25;120.80;;;59.60;;
62056;SDS011;48016;50.284;18.860;2022-11-20T14:27:34;104.00;;;52.70;;
62056;SDS011;48016;50.284;18.860;2022-11-20T14:30:03;112.10;;;56.70;;
62056;SDS011;48016;50.284;18.860;2022-11-20T14:32:31;121.70;;;63.30;;
62056;SDS011;48016;50.284;18.860;2022-11-20T14:35:06;113.90;;;57.00;;
62056;SDS011;48016;50.284;18.860;2022-11-20T14:37:37;119.30;;;56.70;;
62056;SDS011;48016;50.284;18.860;2022-11-20T14:40:51;107.40;;;51.50;;
62056;SDS011;48016;50.284;18.860;2022-11-20T14:42:58;82.70;;;38.80;;
62056;SDS011;48016;50.284;18.860;2022-11-20T14:45:25;69.40;;;33.30;;
62056;SDS011;48016;50.284;18.860;2022-11-20T14:47:53;73.30;;;33.60;;
62056;SDS011;48016;50.284;18.860;2022-11-20T14:50:24;82.20;;;36.60;;
62056;SDS011;48016;50.284;18.860;2022-11-20T14:53:01;79.40;;;35.50;;
62056;SDS011;48016;50.284;18.860;2022-11-20T14:55:29;75.20;;;33.10;;
62056;SDS011;48016;50.284;18.860;2022-11-20T14:58:04;65.30;;;31.90;;
62056;SDS011;48016;50.284;18.860;2022-11-20T15:01:11;71.70;;;33.60;;
62056;SDS011;48016;50.284;18.860;2022-11-20T15:03:39;66.60;;;30.60;;
62056;SDS011;48016;50.284;18.860;2022-11-20T15:06:07;69.70;;;32.70;;
62056;SDS011;48016;50.284;18.860;2022-11-20T15:08:37;81.10;;;37.20;;
62056;SDS011;48016;50.284;18.860;2022-11-20T15:11:14;82.70;;;39.30;;
62056;SDS011;48016;50.284;18.860;2022-11-20T15:13:44;73.10;;;33.70;;
62056;SDS011;48016;50.284;18.860;2022-11-20T15:16:17;76.80;;;34.90;;
62056;SDS011;48016;50.284;18.860;2022-11-20T15:18:46;82.30;;;37.10;;
62056;SDS011;48016;50.284;18.860;2022-11-20T15:21:14;86.10;;;40.90;;
62056;SDS011;48016;50.284;18.860;2022-11-20T15:23:43;87.20;;;43.50;;
62056;SDS011;48016;50.284;18.860;2022-11-20T15:26:10;88.60;;;41.70;;
62056;SDS011;48016;50.284;18.860;2022-11-20T15:28:39;89.00;;;42.30;;
62056;SDS011;48016;50.284;18.860;2022-11-20T15:31:11;80.60;;;38.60;;
62056;SDS011;48016;50.284;18.860;2022-11-20T15:33:38;76.90;;;35.90;;
62056;SDS011;48016;50.284;18.860;2022-11-20T15:36:05;79.20;;;37.60;;
62056;SDS011;48016;50.284;18.860;2022-11-20T15:38:31;86.80;;;41.90;;
62056;SDS011;48016;50.284;18.860;2022-11-20T15:40:58;82.10;;;41.00;;
62056;SDS011;48016;50.284;18.860;2022-11-20T15:43:25;89.40;;;41.90;;
62056;SDS011;48016;50.284;18.860;2022-11-20T15:45:55;81.00;;;39.70;;
62056;SDS011;48016;50.284;18.860;2022-11-20T15:48:32;91.30;;;41.90;;
62056;SDS011;48016;50.284;18.860;2022-11-20T15:51:07;107.60;;;50.70;;
62056;SDS011;48016;50.284;18.860;2022-11-20T15:53:47;100.90;;;45.70;;
62056;SDS011;48016;50.284;18.860;2022-11-20T15:56:14;103.60;;;46.20;;